sensor_id;sensor_type;location;lat;lon;timestamp;pressure;altitude;pressure_sealevel;temperature;humidity
4273;BME280;63887;53.656;9.810;2023-01-10T00:01:15;100751.66;;;5.91;96.99
4273;BME280;63887;53.656;9.810;2023-01-10T00:03:42;100749.31;;;5.83;97.82
4273;BME280;63887;53.656;9.810;2023-01-10T00:06:09;100755.31;;;5.85;97.67
4273;BME280;63887;53.656;9.810;2023-01-10T00:08:37;100759.66;;;5.85;97.30
4273;BME280;63887;53.656;9.810;2023-01-10T00:11:03;100766.69;;;5.83;97.65
4273;BME280;63887;53.656;9.810;2023-01-10T00:13:52;100770.94;;;5.85;97.09
4273;BME280;63887;53.656;9.810;2023-01-10T00:16:17;100769.16;;;5.86;97.02
4273;BME280;63887;53.656;9.810;2023-01-10T00:18:44;100776.00;;;5.90;95.90
4273;BME280;63887;53.656;9.810;2023-01-10T00:21:12;100781.19;;;5.90;96.67
4273;BME280;63887;53.656;9.810;2023-01-10T00:23:39;100787.44;;;5.84;96.79
4273;BME280;63887;53.656;9.810;2023-01-10T00:26:07;100795.09;;;5.89;96.71
4273;BME280;63887;53.656;9.810;2023-01-10T00:28:33;100793.63;;;5.82;96.47
4273;BME280;63887;53.656;9.810;2023-01-10T00:31:01;100801.56;;;5.77;97.51
4273;BME280;63887;53.656;9.810;2023-01-10T00:33:31;100804.66;;;5.88;96.73
4273;BME280;63887;53.656;9.810;2023-01-10T00:35:58;100805.56;;;5.87;96.63
4273;BME280;63887;53.656;9.810;2023-01-10T00:38:26;100815.22;;;5.84;96.38
4273;BME280;63887;53.656;9.810;2023-01-10T00:40:53;100807.44;;;5.84;96.63
4273;BME280;63887;53.656;9.810;2023-01-10T00:43:19;100816.13;;;5.83;95.69
4273;BME280;63887;53.656;9.810;2023-01-10T00:46:03;100816.72;;;5.66;96.89
4273;BME280;63887;53.656;9.810;2023-01-10T00:48:30;100821.19;;;5.61;96.21
4273;BME280;63887;53.656;9.810;2023-01-10T00:50:56;100824.97;;;5.52;96.13
4273;BME280;63887;53.656;9.810;2023-01-10T00:53:23;100825.78;;;5.54;96.52
4273;BME280;63887;53.656;9.810;2023-01-10T00:55:52;100833.75;;;5.48;96.49
4273;BME280;63887;53.656;9.810;2023-01-10T00:58:18;100842.81;;;5.36;96.59
4273;BME280;63887;53.656;9.810;2023-01-10T01:00:45;100842.16;;;5.30;97.06
4273;BME280;63887;53.656;9.810;2023-01-10T01:03:14;100851.81;;;5.26;97.36
4273;BME280;63887;53.656;9.810;2023-01-10T01:05:42;100860.63;;;5.22;96.83
4273;BME280;63887;53.656;9.810;2023-01-10T01:08:09;100859.22;;;5.11;97.28
4273;BME280;63887;53.656;9.810;2023-01-10T01:10:36;100869.78;;;5.06;97.35
4273;BME280;63887;53.656;9.810;2023-01-10T01:13:08;100876.00;;;5.00;97.85
4273;BME280;63887;53.656;9.810;2023-01-10T01:15:35;100882.13;;;4.98;97.94
4273;BME280;63887;53.656;9.810;2023-01-10T01:18:02;100886.63;;;4.93;98.63
4273;BME280;63887;53.656;9.810;2023-01-10T01:20:29;100896.25;;;4.89;97.77
4273;BME280;63887;53.656;9.810;2023-01-10T01:22:56;100905.75;;;4.90;98.71
4273;BME280;63887;53.656;9.810;2023-01-10T01:25:22;100913.44;;;4.95;98.12
4273;BME280;63887;53.656;9.810;2023-01-10T01:27:49;100916.88;;;4.95;97.65
4273;BME280;63887;53.656;9.810;2023-01-10T01:30:17;100930.63;;;4.99;98.52
4273;BME280;63887;53.656;9.810;2023-01-10T01:35:13;100938.97;;;5.10;97.84
4273;BME280;63887;53.656;9.810;2023-01-10T01:37:40;100938.88;;;5.13;97.69
4273;BME280;63887;53.656;9.810;2023-01-10T01:40:08;100943.09;;;5.17;98.41
4273;BME280;63887;53.656;9.810;2023-01-10T01:42:35;100954.28;;;5.21;97.71
4273;BME280;63887;53.656;9.810;2023-01-10T01:45:30;100956.69;;;5.27;96.87
4273;BME280;63887;53.656;9.810;2023-01-10T01:48:02;100954.19;;;5.24;96.33
4273;BME280;63887;53.656;9.810;2023-01-10T01:50:32;100960.03;;;5.30;96.53
4273;BME280;63887;53.656;9.810;2023-01-10T01:53:07;100969.59;;;5.30;97.03
4273;BME280;63887;53.656;9.810;2023-01-10T01:55:35;100966.81;;;5.36;96.41
4273;BME280;63887;53.656;9.810;2023-01-10T01:58:05;100971.25;;;5.32;96.19
4273;BME280;63887;53.656;9.810;2023-01-10T02:00:33;100980.53;;;5.41;95.97
4273;BME280;63887;53.656;9.810;2023-01-10T02:03:01;100980.53;;;5.41;95.64
4273;BME280;63887;53.656;9.810;2023-01-10T02:05:29;100988.28;;;5.43;96.48
4273;BME280;63887;53.656;9.810;2023-01-10T02:07:58;100998.53;;;5.47;96.00
4273;BME280;63887;53.656;9.810;2023-01-10T02:10:31;100996.94;;;5.43;96.06
4273;BME280;63887;53.656;9.810;2023-01-10T02:13:01;100997.84;;;5.42;95.28
4273;BME280;63887;53.656;9.810;2023-01-10T02:15:29;101006.72;;;5.35;95.76
4273;BME280;63887;53.656;9.810;2023-01-10T02:17:57;101006.72;;;5.35;95.74
4273;BME280;63887;53.656;9.810;2023-01-10T02:20:25;101013.41;;;5.44;94.92
4273;BME280;63887;53.656;9.810;2023-01-10T02:23:12;101017.84;;;5.40;95.21
4273;BME280;63887;53.656;9.810;2023-01-10T02:26:16;101022.19;;;5.39;95.55
4273;BME280;63887;53.656;9.810;2023-01-10T02:32:16;101029.19;;;5.37;95.02
4273;BME280;63887;53.656;9.810;2023-01-10T02:34:53;101035.97;;;5.43;95.89
4273;BME280;63887;53.656;9.810;2023-01-10T02:37:34;101046.47;;;5.40;95.77
4273;BME280;63887;53.656;9.810;2023-01-10T02:40:13;101048.16;;;5.41;95.56
4273;BME280;63887;53.656;9.810;2023-01-10T02:42:46;101046.56;;;5.35;95.15
4273;BME280;63887;53.656;9.810;2023-01-10T02:45:18;101053.63;;;5.32;96.02
4273;BME280;63887;53.656;9.810;2023-01-10T02:47:48;101052.75;;;5.31;95.71
4273;BME280;63887;53.656;9.810;2023-01-10T02:50:30;101054.38;;;5.37;95.56
4273;BME280;63887;53.656;9.810;2023-01-10T02:53:03;101055.38;;;5.31;95.38
4273;BME280;63887;53.656;9.810;2023-01-10T02:55:37;101052.91;;;5.27;95.53
4273;BME280;63887;53.656;9.810;2023-01-10T02:58:18;101064.53;;;5.14;95.69
4273;BME280;63887;53.656;9.810;2023-01-10T03:00:52;101064.44;;;5.17;96.04
4273;BME280;63887;53.656;9.810;2023-01-10T03:03:31;101065.06;;;5.26;95.22
4273;BME280;63887;53.656;9.810;2023-01-10T03:06:10;101072.91;;;5.25;95.71
4273;BME280;63887;53.656;9.810;2023-01-10T03:08:43;101071.00;;;5.30;95.02
4273;BME280;63887;53.656;9.810;2023-01-10T03:11:12;101074.22;;;5.39;94.59
4273;BME280;63887;53.656;9.810;2023-01-10T03:13:42;101077.59;;;5.43;94.57
4273;BME280;63887;53.656;9.810;2023-01-10T03:16:16;101085.63;;;5.34;95.75
4273;BME280;63887;53.656;9.810;2023-01-10T03:18:47;101078.06;;;5.26;95.29
4273;BME280;63887;53.656;9.810;2023-01-10T03:21:18;101079.03;;;5.22;95.76
4273;BME280;63887;53.656;9.810;2023-01-10T03:23:46;101081.84;;;5.15;94.98
4273;BME280;63887;53.656;9.810;2023-01-10T03:26:15;101091.53;;;5.09;96.13
4273;BME280;63887;53.656;9.810;2023-01-10T03:28:46;101088.25;;;5.01;95.71
4273;BME280;63887;53.656;9.810;2023-01-10T03:31:18;101087.69;;;4.90;95.62
4273;BME280;63887;53.656;9.810;2023-01-10T03:33:48;101098.25;;;4.84;96.57
4273;BME280;63887;53.656;9.810;2023-01-10T03:36:22;101102.81;;;4.74;96.29
4273;BME280;63887;53.656;9.810;2023-01-10T03:38:56;101111.53;;;4.72;96.54
4273;BME280;63887;53.656;9.810;2023-01-10T03:41:34;101105.56;;;4.68;96.48
4273;BME280;63887;53.656;9.810;2023-01-10T03:44:10;101116.78;;;4.70;96.95
4273;BME280;63887;53.656;9.810;2023-01-10T03:47:00;101118.59;;;4.67;97.09
4273;BME280;63887;53.656;9.810;2023-01-10T03:49:31;101129.94;;;4.64;96.36
4273;BME280;63887;53.656;9.810;2023-01-10T03:51:59;101135.22;;;4.60;96.62
4273;BME280;63887;53.656;9.810;2023-01-10T03:54:27;101139.50;;;4.62;96.61
4273;BME280;63887;53.656;9.810;2023-01-10T03:56:54;101155.31;;;4.53;97.11
4273;BME280;63887;53.656;9.810;2023-01-10T03:59:22;101153.66;;;4.51;96.75
4273;BME280;63887;53.656;9.810;2023-01-10T04:01:49;101163.88;;;4.57;97.21
4273;BME280;63887;53.656;9.810;2023-01-10T04:04:16;101167.19;;;4.63;96.80
4273;BME280;63887;53.656;9.810;2023-01-10T04:06:44;101165.59;;;4.58;96.65
4273;BME280;63887;53.656;9.810;2023-01-10T04:09:11;101169.84;;;4.60;96.40
4273;BME280;63887;53.656;9.810;2023-01-10T04:11:38;101176.66;;;4.66;96.20
4273;BME280;63887;53.656;9.810;2023-01-10T04:14:04;101177.31;;;4.74;96.15
4273;BME280;63887;53.656;9.810;2023-01-10T04:16:31;101181.69;;;4.72;96.24
4273;BME280;63887;53.656;9.810;2023-01-10T04:18:57;101184.13;;;4.79;96.21
4273;BME280;63887;53.656;9.810;2023-01-10T04:21:24;101187.75;;;4.72;95.96
4273;BME280;63887;53.656;9.810;2023-01-10T04:23:52;101191.25;;;4.71;96.65
4273;BME280;63887;53.656;9.810;2023-01-10T04:26:18;101193.72;;;4.77;96.14
4273;BME280;63887;53.656;9.810;2023-01-10T04:28:45;101197.94;;;4.82;96.74
4273;BME280;63887;53.656;9.810;2023-01-10T04:31:11;101197.91;;;4.83;96.00
4273;BME280;63887;53.656;9.810;2023-01-10T04:33:38;101208.34;;;4.82;96.25
4273;BME280;63887;53.656;9.810;2023-01-10T04:36:06;101209.88;;;4.89;95.73
4273;BME280;63887;53.656;9.810;2023-01-10T04:38:32;101203.63;;;4.97;95.87
4273;BME280;63887;53.656;9.810;2023-01-10T04:41:00;101222.75;;;4.95;95.90
4273;BME280;63887;53.656;9.810;2023-01-10T04:43:26;101213.03;;;5.01;95.48
4273;BME280;63887;53.656;9.810;2023-01-10T04:45:53;101225.16;;;5.02;95.81
4273;BME280;63887;53.656;9.810;2023-01-10T04:48:19;101228.63;;;5.01;95.69
4273;BME280;63887;53.656;9.810;2023-01-10T04:50:48;101237.22;;;5.06;96.09
4273;BME280;63887;53.656;9.810;2023-01-10T04:53:16;101243.34;;;5.02;96.33
4273;BME280;63887;53.656;9.810;2023-01-10T04:55:42;101247.31;;;5.17;95.92
4273;BME280;63887;53.656;9.810;2023-01-10T04:58:10;101253.53;;;5.12;95.35
4273;BME280;63887;53.656;9.810;2023-01-10T05:00:37;101257.88;;;5.11;95.38
4273;BME280;63887;53.656;9.810;2023-01-10T05:03:03;101261.84;;;5.26;95.03
4273;BME280;63887;53.656;9.810;2023-01-10T05:05:30;101266.47;;;5.15;94.65
4273;BME280;63887;53.656;9.810;2023-01-10T05:07:57;101267.38;;;5.12;95.70
4273;BME280;63887;53.656;9.810;2023-01-10T05:10:24;101271.78;;;5.10;96.07
4273;BME280;63887;53.656;9.810;2023-01-10T05:12:50;101277.91;;;5.07;95.52
4273;BME280;63887;53.656;9.810;2023-01-10T05:15:18;101273.56;;;5.08;95.85
4273;BME280;63887;53.656;9.810;2023-01-10T05:17:45;101276.88;;;5.15;95.94
4273;BME280;63887;53.656;9.810;2023-01-10T05:20:12;101275.88;;;5.19;94.71
4273;BME280;63887;53.656;9.810;2023-01-10T05:22:38;101284.75;;;5.12;95.76
4273;BME280;63887;53.656;9.810;2023-01-10T05:25:05;101282.91;;;5.15;95.02
4273;BME280;63887;53.656;9.810;2023-01-10T05:27:31;101293.34;;;5.14;96.20
4273;BME280;63887;53.656;9.810;2023-01-10T05:29:58;101296.84;;;5.13;95.90
4273;BME280;63887;53.656;9.810;2023-01-10T05:32:28;101307.16;;;5.16;95.70
4273;BME280;63887;53.656;9.810;2023-01-10T05:34:54;101321.75;;;5.23;94.42
4273;BME280;63887;53.656;9.810;2023-01-10T05:37:21;101328.97;;;5.10;95.33
4273;BME280;63887;53.656;9.810;2023-01-10T05:39:47;101334.19;;;5.10;95.06
4273;BME280;63887;53.656;9.810;2023-01-10T05:42:14;101329.19;;;5.01;95.76
4273;BME280;63887;53.656;9.810;2023-01-10T05:44:40;101329.19;;;5.01;95.21
4273;BME280;63887;53.656;9.810;2023-01-10T05:47:07;101339.06;;;4.85;95.11
4273;BME280;63887;53.656;9.810;2023-01-10T05:49:35;101344.44;;;4.77;96.06
4273;BME280;63887;53.656;9.810;2023-01-10T05:52:02;101347.94;;;4.75;96.31
4273;BME280;63887;53.656;9.810;2023-01-10T05:54:29;101355.72;;;4.76;95.61
4273;BME280;63887;53.656;9.810;2023-01-10T05:56:55;101358.53;;;4.66;95.66
4273;BME280;63887;53.656;9.810;2023-01-10T05:59:22;101366.44;;;4.61;96.37
4273;BME280;63887;53.656;9.810;2023-01-10T06:01:49;101361.09;;;4.67;95.66
4273;BME280;63887;53.656;9.810;2023-01-10T06:04:15;101364.72;;;4.59;96.14
4273;BME280;63887;53.656;9.810;2023-01-10T06:06:43;101362.25;;;4.54;96.07
4273;BME280;63887;53.656;9.810;2023-01-10T06:09:10;101364.91;;;4.51;96.64
4273;BME280;63887;53.656;9.810;2023-01-10T06:11:36;101366.63;;;4.52;96.81
4273;BME280;63887;53.656;9.810;2023-01-10T06:14:03;101367.50;;;4.51;96.60
4273;BME280;63887;53.656;9.810;2023-01-10T06:16:31;101384.91;;;4.46;96.29
4273;BME280;63887;53.656;9.810;2023-01-10T06:18:57;101385.72;;;4.49;96.77
4273;BME280;63887;53.656;9.810;2023-01-10T06:21:24;101396.03;;;4.53;96.11
4273;BME280;63887;53.656;9.810;2023-01-10T06:23:52;101407.38;;;4.48;96.72
4273;BME280;63887;53.656;9.810;2023-01-10T06:26:18;101407.34;;;4.50;96.37
4273;BME280;63887;53.656;9.810;2023-01-10T06:28:45;101412.44;;;4.55;95.82
4273;BME280;63887;53.656;9.810;2023-01-10T06:31:11;101411.59;;;4.54;96.22
4273;BME280;63887;53.656;9.810;2023-01-10T06:33:39;101426.28;;;4.55;96.00
4273;BME280;63887;53.656;9.810;2023-01-10T06:36:08;101425.63;;;4.44;96.49
4273;BME280;63887;53.656;9.810;2023-01-10T06:38:35;101420.47;;;4.42;96.60
4273;BME280;63887;53.656;9.810;2023-01-10T06:41:03;101427.34;;;4.45;95.91
4273;BME280;63887;53.656;9.810;2023-01-10T06:43:37;101433.47;;;4.42;96.20
4273;BME280;63887;53.656;9.810;2023-01-10T06:46:04;101434.44;;;4.37;95.71
4273;BME280;63887;53.656;9.810;2023-01-10T06:48:33;101437.09;;;4.34;96.00
4273;BME280;63887;53.656;9.810;2023-01-10T06:51:00;101439.00;;;4.24;96.38
4273;BME280;63887;53.656;9.810;2023-01-10T06:53:26;101445.97;;;4.22;96.55
4273;BME280;63887;53.656;9.810;2023-01-10T06:55:53;101451.03;;;4.28;96.33
4273;BME280;63887;53.656;9.810;2023-01-10T06:58:21;101452.84;;;4.25;96.23
4273;BME280;63887;53.656;9.810;2023-01-10T07:00:47;101462.41;;;4.23;95.94
4273;BME280;63887;53.656;9.810;2023-01-10T07:03:14;101463.38;;;4.14;96.13
4273;BME280;63887;53.656;9.810;2023-01-10T07:05:41;101457.31;;;4.15;96.95
4273;BME280;63887;53.656;9.810;2023-01-10T07:08:07;101469.44;;;4.14;96.58
4273;BME280;63887;53.656;9.810;2023-01-10T07:10:34;101459.81;;;4.21;96.46
4273;BME280;63887;53.656;9.810;2023-01-10T07:13:00;101468.56;;;4.17;96.52
4273;BME280;63887;53.656;9.810;2023-01-10T07:15:28;101467.47;;;4.29;96.46
4273;BME280;63887;53.656;9.810;2023-01-10T07:17:55;101463.19;;;4.26;96.52
4273;BME280;63887;53.656;9.810;2023-01-10T07:20:22;101467.53;;;4.26;96.66
4273;BME280;63887;53.656;9.810;2023-01-10T07:22:52;101470.94;;;4.28;96.05
4273;BME280;63887;53.656;9.810;2023-01-10T07:25:19;101478.72;;;4.29;96.60
4273;BME280;63887;53.656;9.810;2023-01-10T07:27:46;101476.69;;;4.46;96.31
4273;BME280;63887;53.656;9.810;2023-01-10T07:30:12;101479.34;;;4.42;95.68
4273;BME280;63887;53.656;9.810;2023-01-10T07:32:40;101479.53;;;4.31;96.13
4273;BME280;63887;53.656;9.810;2023-01-10T07:35:08;101477.84;;;4.29;96.70
4273;BME280;63887;53.656;9.810;2023-01-10T07:37:34;101479.63;;;4.27;95.90
4273;BME280;63887;53.656;9.810;2023-01-10T07:40:01;101484.91;;;4.22;96.05
4273;BME280;63887;53.656;9.810;2023-01-10T07:42:27;101484.06;;;4.22;96.38
4273;BME280;63887;53.656;9.810;2023-01-10T07:44:54;101492.81;;;4.14;96.33
4273;BME280;63887;53.656;9.810;2023-01-10T07:47:20;101498.00;;;4.14;96.17
4273;BME280;63887;53.656;9.810;2023-01-10T07:49:48;101493.59;;;4.21;96.33
4273;BME280;63887;53.656;9.810;2023-01-10T07:52:15;101489.22;;;4.23;96.77
4273;BME280;63887;53.656;9.810;2023-01-10T07:54:41;101502.94;;;4.30;96.19
4273;BME280;63887;53.656;9.810;2023-01-10T07:57:08;101502.91;;;4.31;97.03
4273;BME280;63887;53.656;9.810;2023-01-10T07:59:34;101496.84;;;4.34;96.54
4273;BME280;63887;53.656;9.810;2023-01-10T08:02:01;101491.53;;;4.40;96.42
4273;BME280;63887;53.656;9.810;2023-01-10T08:04:27;101497.53;;;4.42;96.21
4273;BME280;63887;53.656;9.810;2023-01-10T08:06:55;101504.59;;;4.35;96.09
4273;BME280;63887;53.656;9.810;2023-01-10T08:09:21;101511.56;;;4.33;96.03
4273;BME280;63887;53.656;9.810;2023-01-10T08:11:48;101503.78;;;4.33;96.95
4273;BME280;63887;53.656;9.810;2023-01-10T08:14:14;101512.38;;;4.35;96.31
4273;BME280;63887;53.656;9.810;2023-01-10T08:16:41;101510.66;;;4.36;96.46
4273;BME280;63887;53.656;9.810;2023-01-10T08:19:07;101522.78;;;4.35;96.51
4273;BME280;63887;53.656;9.810;2023-01-10T08:21:34;101527.09;;;4.36;95.91
4273;BME280;63887;53.656;9.810;2023-01-10T08:24:02;101529.69;;;4.36;96.89
4273;BME280;63887;53.656;9.810;2023-01-10T08:26:29;101527.03;;;4.39;96.17
4273;BME280;63887;53.656;9.810;2023-01-10T08:28:56;101533.91;;;4.42;96.94
4273;BME280;63887;53.656;9.810;2023-01-10T08:31:22;101517.13;;;4.61;96.09
4273;BME280;63887;53.656;9.810;2023-01-10T08:33:49;101520.59;;;4.62;96.13
4273;BME280;63887;53.656;9.810;2023-01-10T08:36:15;101522.13;;;4.72;96.49
4273;BME280;63887;53.656;9.810;2023-01-10T08:38:42;101526.09;;;4.91;94.80
4273;BME280;63887;53.656;9.810;2023-01-10T08:41:10;101540.84;;;4.89;95.41
4273;BME280;63887;53.656;9.810;2023-01-10T08:43:37;101546.06;;;4.88;96.07
4273;BME280;63887;53.656;9.810;2023-01-10T08:46:04;101563.22;;;4.98;94.69
4273;BME280;63887;53.656;9.810;2023-01-10T08:48:31;101562.38;;;4.97;95.09
4273;BME280;63887;53.656;9.810;2023-01-10T08:50:58;101569.13;;;5.07;95.10
4273;BME280;63887;53.656;9.810;2023-01-10T08:53:24;101564.25;;;5.34;94.09
4273;BME280;63887;53.656;9.810;2023-01-10T08:55:56;101553.97;;;5.28;94.09
4273;BME280;63887;53.656;9.810;2023-01-10T08:58:23;101544.41;;;5.30;94.61
4273;BME280;63887;53.656;9.810;2023-01-10T09:00:50;101535.81;;;5.26;94.63
4273;BME280;63887;53.656;9.810;2023-01-10T09:03:16;101525.47;;;5.23;93.96
4273;BME280;63887;53.656;9.810;2023-01-10T09:05:44;101523.66;;;5.27;94.47
4273;BME280;63887;53.656;9.810;2023-01-10T09:08:10;101525.50;;;5.20;94.17
4273;BME280;63887;53.656;9.810;2023-01-10T09:10:37;101529.84;;;5.20;93.82
4273;BME280;63887;53.656;9.810;2023-01-10T09:13:03;101532.50;;;5.18;94.67
4273;BME280;63887;53.656;9.810;2023-01-10T09:15:33;101528.13;;;5.19;93.78
4273;BME280;63887;53.656;9.810;2023-01-10T09:18:02;101527.28;;;5.18;94.44
4273;BME280;63887;53.656;9.810;2023-01-10T09:20:29;101542.84;;;5.20;93.99
4273;BME280;63887;53.656;9.810;2023-01-10T09:22:57;101538.53;;;5.19;94.38
4273;BME280;63887;53.656;9.810;2023-01-10T09:25:24;101528.72;;;5.33;93.91
4273;BME280;63887;53.656;9.810;2023-01-10T09:27:55;101539.09;;;5.34;94.00
4273;BME280;63887;53.656;9.810;2023-01-10T09:30:23;101555.72;;;5.27;93.97
4273;BME280;63887;53.656;9.810;2023-01-10T09:32:52;101567.63;;;5.39;94.24
4273;BME280;63887;53.656;9.810;2023-01-10T09:35:20;101572.00;;;5.37;93.72
4273;BME280;63887;53.656;9.810;2023-01-10T09:37:47;101581.66;;;5.30;94.14
4273;BME280;63887;53.656;9.810;2023-01-10T09:40:15;101597.47;;;5.21;94.33
4273;BME280;63887;53.656;9.810;2023-01-10T09:42:53;101592.03;;;5.32;94.79
4273;BME280;63887;53.656;9.810;2023-01-10T09:45:29;101600.28;;;5.54;94.95
4273;BME280;63887;53.656;9.810;2023-01-10T09:48:02;101606.72;;;5.78;94.36
4273;BME280;63887;53.656;9.810;2023-01-10T09:50:36;101611.00;;;5.80;92.10
4273;BME280;63887;53.656;9.810;2023-01-10T09:53:10;101610.91;;;5.85;93.01
4273;BME280;63887;53.656;9.810;2023-01-10T09:55:38;101610.72;;;5.95;92.62
4273;BME280;63887;53.656;9.810;2023-01-10T09:58:10;101609.59;;;6.06;91.84
4273;BME280;63887;53.656;9.810;2023-01-10T10:00:40;101613.25;;;5.98;92.17
4273;BME280;63887;53.656;9.810;2023-01-10T10:03:18;101626.28;;;5.98;92.21
4273;BME280;63887;53.656;9.810;2023-01-10T10:05:46;101630.38;;;6.09;91.67
4273;BME280;63887;53.656;9.810;2023-01-10T10:08:16;101632.19;;;6.05;91.24
4273;BME280;63887;53.656;9.810;2023-01-10T10:10:50;101623.09;;;6.23;91.13
4273;BME280;63887;53.656;9.810;2023-01-10T10:13:26;101628.47;;;6.17;90.91
4273;BME280;63887;53.656;9.810;2023-01-10T10:16:01;101629.50;;;6.08;90.58
4273;BME280;63887;53.656;9.810;2023-01-10T10:18:40;101625.22;;;6.06;91.47
4273;BME280;63887;53.656;9.810;2023-01-10T10:21:15;101630.28;;;6.13;90.96
4273;BME280;63887;53.656;9.810;2023-01-10T10:23:57;101614.44;;;6.22;91.04
4273;BME280;63887;53.656;9.810;2023-01-10T10:26:32;101609.50;;;6.12;91.53
4273;BME280;63887;53.656;9.810;2023-01-10T10:29:26;101609.56;;;6.07;91.28
4273;BME280;63887;53.656;9.810;2023-01-10T10:32:14;101611.19;;;6.13;90.47
4273;BME280;63887;53.656;9.810;2023-01-10T10:34:48;101621.66;;;6.11;91.39
4273;BME280;63887;53.656;9.810;2023-01-10T10:37:19;101624.84;;;6.22;90.79
4273;BME280;63887;53.656;9.810;2023-01-10T10:39:50;101628.53;;;6.14;91.06
4273;BME280;63887;53.656;9.810;2023-01-10T10:42:19;101622.41;;;6.16;90.80
4273;BME280;63887;53.656;9.810;2023-01-10T10:44:50;101618.19;;;6.11;91.63
4273;BME280;63887;53.656;9.810;2023-01-10T10:47:18;101621.31;;;6.26;90.13
4273;BME280;63887;53.656;9.810;2023-01-10T10:49:50;101612.66;;;6.24;90.57
4273;BME280;63887;53.656;9.810;2023-01-10T10:52:22;101625.06;;;6.13;90.57
4273;BME280;63887;53.656;9.810;2023-01-10T10:54:50;101627.69;;;6.13;91.12
4273;BME280;63887;53.656;9.810;2023-01-10T10:57:17;101631.09;;;6.15;91.46
4273;BME280;63887;53.656;9.810;2023-01-10T10:59:46;101630.03;;;6.25;90.53
4273;BME280;63887;53.656;9.810;2023-01-10T11:02:22;101639.34;;;6.34;90.50
4273;BME280;63887;53.656;9.810;2023-01-10T11:04:52;101636.88;;;6.30;90.75
4273;BME280;63887;53.656;9.810;2023-01-10T11:07:21;101635.66;;;6.44;89.41
4273;BME280;63887;53.656;9.810;2023-01-10T11:09:48;101634.78;;;6.44;89.69
4273;BME280;63887;53.656;9.810;2023-01-10T11:12:20;101633.53;;;6.23;90.80
4273;BME280;63887;53.656;9.810;2023-01-10T11:14:50;101634.19;;;6.33;91.02
4273;BME280;63887;53.656;9.810;2023-01-10T11:17:19;101646.13;;;6.43;90.66
4273;BME280;63887;53.656;9.810;2023-01-10T11:19:57;101647.25;;;6.31;91.00
4273;BME280;63887;53.656;9.810;2023-01-10T11:22:24;101650.59;;;6.36;90.85
4273;BME280;63887;53.656;9.810;2023-01-10T11:24:53;101650.59;;;6.36;90.65
4273;BME280;63887;53.656;9.810;2023-01-10T11:27:22;101642.34;;;6.54;89.17
4273;BME280;63887;53.656;9.810;2023-01-10T11:29:50;101643.50;;;6.43;90.87
4273;BME280;63887;53.656;9.810;2023-01-10T11:32:21;101644.03;;;6.57;90.26
4273;BME280;63887;53.656;9.810;2023-01-10T11:34:51;101646.84;;;6.48;90.20
4273;BME280;63887;53.656;9.810;2023-01-10T11:37:24;101647.53;;;6.54;89.91
4273;BME280;63887;53.656;9.810;2023-01-10T11:42:45;101657.22;;;6.49;90.20
4273;BME280;63887;53.656;9.810;2023-01-10T11:45:29;101656.66;;;6.37;91.68
4273;BME280;63887;53.656;9.810;2023-01-10T11:48:01;101649.75;;;6.36;92.00
4273;BME280;63887;53.656;9.810;2023-01-10T11:50:31;101648.56;;;6.49;91.12
4273;BME280;63887;53.656;9.810;2023-01-10T11:53:00;101646.94;;;6.45;91.60
4273;BME280;63887;53.656;9.810;2023-01-10T11:55:28;101646.81;;;6.49;91.16
4273;BME280;63887;53.656;9.810;2023-01-10T11:58:00;101645.03;;;6.51;91.05
4273;BME280;63887;53.656;9.810;2023-01-10T12:00:35;101638.81;;;6.57;91.01
4273;BME280;63887;53.656;9.810;2023-01-10T12:03:14;101636.44;;;6.48;91.19
4273;BME280;63887;53.656;9.810;2023-01-10T12:05:48;101634.38;;;6.61;90.55
4273;BME280;63887;53.656;9.810;2023-01-10T12:08:23;101639.56;;;6.62;91.28
4273;BME280;63887;53.656;9.810;2023-01-10T12:10:59;101644.59;;;6.70;90.24
4273;BME280;63887;53.656;9.810;2023-01-10T12:13:27;101639.59;;;6.61;91.15
4273;BME280;63887;53.656;9.810;2023-01-10T12:16:19;101644.66;;;6.67;90.37
4273;BME280;63887;53.656;9.810;2023-01-10T12:18:47;101651.25;;;6.81;90.48
4273;BME280;63887;53.656;9.810;2023-01-10T12:21:15;101641.72;;;6.80;90.48
4273;BME280;63887;53.656;9.810;2023-01-10T12:23:46;101638.16;;;6.84;90.25
4273;BME280;63887;53.656;9.810;2023-01-10T12:26:12;101631.75;;;6.96;89.15
4273;BME280;63887;53.656;9.810;2023-01-10T12:28:41;101634.22;;;7.02;89.63
4273;BME280;63887;53.656;9.810;2023-01-10T12:31:11;101637.91;;;6.94;90.13
4273;BME280;63887;53.656;9.810;2023-01-10T12:33:42;101629.44;;;7.18;88.80
4273;BME280;63887;53.656;9.810;2023-01-10T12:36:17;101628.69;;;7.13;88.94
4273;BME280;63887;53.656;9.810;2023-01-10T12:38:56;101633.06;;;7.12;89.21
4273;BME280;63887;53.656;9.810;2023-01-10T12:41:37;101629.94;;;7.00;89.69
4273;BME280;63887;53.656;9.810;2023-01-10T12:44:29;101634.03;;;7.08;89.72
4273;BME280;63887;53.656;9.810;2023-01-10T12:47:02;101633.81;;;7.17;89.29
4273;BME280;63887;53.656;9.810;2023-01-10T12:49:33;101628.94;;;7.04;89.59
4273;BME280;63887;53.656;9.810;2023-01-10T12:52:05;101623.81;;;7.01;89.06
4273;BME280;63887;53.656;9.810;2023-01-10T12:54:36;101626.16;;;7.10;88.39
4273;BME280;63887;53.656;9.810;2023-01-10T12:57:13;101621.91;;;7.07;88.68
4273;BME280;63887;53.656;9.810;2023-01-10T12:59:43;101630.78;;;7.00;88.82
4273;BME280;63887;53.656;9.810;2023-01-10T13:02:17;101626.44;;;6.99;89.12
4273;BME280;63887;53.656;9.810;2023-01-10T13:04:47;101620.47;;;6.96;89.72
4273;BME280;63887;53.656;9.810;2023-01-10T13:07:15;101616.84;;;7.01;89.20
4273;BME280;63887;53.656;9.810;2023-01-10T13:09:44;101617.72;;;7.02;88.94
4273;BME280;63887;53.656;9.810;2023-01-10T13:12:17;101620.59;;;6.91;88.90
4273;BME280;63887;53.656;9.810;2023-01-10T13:14:50;101618.59;;;7.01;88.00
4273;BME280;63887;53.656;9.810;2023-01-10T13:17:28;101619.97;;;7.14;88.26
4273;BME280;63887;53.656;9.810;2023-01-10T13:20:25;101610.84;;;6.98;88.17
4273;BME280;63887;53.656;9.810;2023-01-10T13:22:54;101605.66;;;6.96;88.55
4273;BME280;63887;53.656;9.810;2023-01-10T13:25:23;101610.16;;;6.91;88.64
4273;BME280;63887;53.656;9.810;2023-01-10T13:27:54;101610.97;;;6.93;88.88
4273;BME280;63887;53.656;9.810;2023-01-10T13:30:27;101615.97;;;7.02;87.26
4273;BME280;63887;53.656;9.810;2023-01-10T13:33:05;101618.66;;;6.98;86.93